Time;durP1;ratioP1;P1;durP2;ratioP2;P2;SDS_P1;SDS_P2;PMS_P1;PMS_P2;Temp;Humidity;BMP_temperature;BMP_pressure;BME280_temperature;BME280_humidity;BME280_pressure;Samples;Min_cycle;Max_cycle;Signal;HPM_P1;HPM_P2
2021/08/08 00:01:02;;;;;;;1.27;0.93;;;20.70;62.00;;;;;;1488396;39;20040;-59
2021/08/08 00:02:23;;;;;;;2.35;0.77;;;20.70;62.00;;;;;;1492018;39;20040;-60
2021/08/08 00:03:44;;;;;;;0.82;0.80;;;20.70;62.00;;;;;;1488670;39;20082;-59
2021/08/08 00:05:07;;;;;;;0.80;0.57;;;20.70;62.00;;;;;;1491609;39;20036;-59
2021/08/08 00:06:29;;;;;;;0.77;0.77;;;20.70;62.10;;;;;;1490989;39;20031;-59
2021/08/08 00:07:50;;;;;;;0.73;0.73;;;20.70;62.00;;;;;;1488533;39;20320;-59
2021/08/08 00:09:11;;;;;;;1.33;0.70;;;20.70;62.00;;;;;;1490645;39;20031;-59
2021/08/08 00:10:32;;;;;;;2.95;0.70;;;20.60;62.10;;;;;;1491798;39;20043;-59
2021/08/08 00:11:53;;;;;;;0.60;0.60;;;20.70;62.20;;;;;;1490031;39;20063;-59
2021/08/08 00:13:14;;;;;;;1.70;0.90;;;20.70;62.20;;;;;;1492521;39;20092;-60
2021/08/08 00:14:36;;;;;;;1.67;0.77;;;20.70;62.40;;;;;;1491635;39;20422;-59
2021/08/08 00:15:57;;;;;;;1.05;0.90;;;20.60;62.30;;;;;;1491227;39;20040;-59
2021/08/08 00:17:19;;;;;;;1.52;1.00;;;20.60;62.20;;;;;;1490783;39;20055;-59
2021/08/08 00:18:41;;;;;;;1.48;1.00;;;20.70;62.40;;;;;;1488766;39;20273;-59
2021/08/08 00:20:04;;;;;;;1.73;1.00;;;20.60;62.20;;;;;;1491408;39;20035;-59
2021/08/08 00:21:25;;;;;;;1.45;1.17;;;20.60;62.20;;;;;;1487227;39;20557;-59
2021/08/08 00:22:46;;;;;;;0.70;0.70;;;20.60;62.10;;;;;;1487894;39;20036;-59
2021/08/08 00:24:07;;;;;;;2.25;1.15;;;20.60;62.10;;;;;;1489655;39;20032;-60
2021/08/08 00:25:28;;;;;;;2.33;1.10;;;20.60;62.30;;;;;;1490400;39;20345;-59
2021/08/08 00:26:49;;;;;;;2.08;0.90;;;20.70;62.20;;;;;;1488637;39;20052;-60
2021/08/08 00:28:10;;;;;;;2.58;0.88;;;20.60;62.20;;;;;;1490753;39;20040;-59
2021/08/08 00:29:31;;;;;;;4.97;0.95;;;20.60;62.10;;;;;;1489034;39;20089;-60
2021/08/08 00:30:52;;;;;;;1.67;1.13;;;20.60;62.30;;;;;;1492249;39;20028;-59
2021/08/08 00:32:13;;;;;;;1.02;0.95;;;20.60;62.30;;;;;;1490477;39;20036;-59
2021/08/08 00:33:34;;;;;;;1.75;1.25;;;20.60;62.30;;;;;;1492018;39;20039;-60
2021/08/08 00:34:55;;;;;;;1.77;1.25;;;20.60;62.30;;;;;;1488996;39;20032;-59
2021/08/08 00:36:17;;;;;;;2.00;1.13;;;20.60;62.30;;;;;;1490439;39;20402;-59
2021/08/08 00:37:42;;;;;;;2.53;1.48;;;20.60;62.30;;;;;;1492427;39;20058;-59
2021/08/08 00:39:04;;;;;;;2.28;1.35;;;20.60;62.50;;;;;;1491338;39;20040;-60
2021/08/08 00:40:24;;;;;;;2.10;1.50;;;20.60;62.30;;;;;;1491686;39;20527;-60
2021/08/08 00:41:45;;;;;;;3.45;1.23;;;20.60;62.30;;;;;;1490380;39;20092;-59
2021/08/08 00:43:10;;;;;;;3.08;1.30;;;20.60;62.30;;;;;;1489727;39;20486;-60
2021/08/08 00:44:31;;;;;;;1.95;1.50;;;20.50;62.10;;;;;;1490338;39;20117;-59
2021/08/08 00:45:52;;;;;;;2.05;1.27;;;20.50;62.10;;;;;;1489057;39;20031;-59
2021/08/08 00:47:13;;;;;;;3.28;1.42;;;20.50;62.10;;;;;;1489706;39;20035;-59
2021/08/08 00:48:34;;;;;;;1.20;1.20;;;20.50;62.20;;;;;;1488100;39;20035;-60
2021/08/08 00:49:55;;;;;;;2.55;1.38;;;20.50;62.20;;;;;;1489611;39;20103;-59
2021/08/08 00:51:16;;;;;;;2.22;1.33;;;20.50;62.30;;;;;;1491507;39;20032;-60
2021/08/08 00:52:37;;;;;;;3.55;1.50;;;20.50;62.20;;;;;;1488444;39;20373;-59
2021/08/08 00:53:59;;;;;;;2.03;1.42;;;20.50;62.90;;;;;;1490721;39;20043;-59
2021/08/08 00:55:20;;;;;;;1.88;1.38;;;20.50;62.10;;;;;;1491047;39;20089;-59
2021/08/08 00:56:41;;;;;;;2.85;1.83;;;20.60;62.20;;;;;;1484598;39;20029;-60
2021/08/08 00:58:02;;;;;;;3.13;1.45;;;20.60;62.20;;;;;;1489487;39;20088;-59
2021/08/08 00:59:22;;;;;;;3.15;1.40;;;20.60;62.10;;;;;;1490253;39;20035;-59
2021/08/08 01:00:46;;;;;;;2.70;1.33;;;20.50;62.10;;;;;;1488402;39;20032;-59
2021/08/08 01:02:07;;;;;;;3.45;1.15;;;20.60;62.10;;;;;;1490676;39;20035;-60
2021/08/08 01:03:29;;;;;;;3.08;1.35;;;20.50;61.90;;;;;;1491659;39;20031;-59
2021/08/08 01:05:11;;;;;;;2.53;1.40;;;20.60;62.10;;;;;;1489549;39;20173;-59
2021/08/08 01:07:10;;;;;;;3.92;1.50;;;20.60;62.30;;;;;;1492045;39;20031;-59
2021/08/08 01:08:31;;;;;;;3.20;1.35;;;20.60;62.30;;;;;;1492175;39;20044;-59
2021/08/08 01:09:56;;;;;;;5.00;1.38;;;20.60;61.80;;;;;;1488653;39;20016;-59
2021/08/08 01:11:19;;;;;;;6.43;1.80;;;20.60;61.90;;;;;;1490780;39;20028;-59
2021/08/08 01:12:41;;;;;;;4.18;1.85;;;20.60;61.90;;;;;;1489382;39;20019;-59
2021/08/08 01:14:03;;;;;;;4.20;1.92;;;20.60;61.90;;;;;;1492530;39;20081;-59
2021/08/08 01:15:24;;;;;;;4.20;1.60;;;20.60;62.00;;;;;;1490887;39;20075;-59
2021/08/08 01:16:46;;;;;;;2.53;1.40;;;20.50;61.90;;;;;;1489453;39;20027;-59
2021/08/08 01:18:11;;;;;;;1.85;1.40;;;20.50;61.90;;;;;;1491177;39;20031;-60
2021/08/08 01:19:38;;;;;;;2.00;1.35;;;20.50;62.00;;;;;;1491660;39;20391;-59
2021/08/08 01:21:01;;;;;;;2.22;1.45;;;20.50;62.20;;;;;;1489561;39;20051;-60
2021/08/08 01:22:25;;;;;;;4.35;1.50;;;20.50;62.00;;;;;;1489356;39;20031;-60
2021/08/08 01:23:54;;;;;;;4.63;1.50;;;20.50;62.80;;;;;;1488675;39;20020;-59
2021/08/08 01:25:16;;;;;;;3.85;1.70;;;20.50;62.10;;;;;;1491118;39;20047;-60
2021/08/08 01:26:39;;;;;;;3.28;1.60;;;20.50;61.90;;;;;;1489379;39;20020;-59
2021/08/08 01:28:01;;;;;;;4.30;1.70;;;20.50;62.00;;;;;;1489388;39;20039;-59
2021/08/08 01:29:22;;;;;;;5.47;1.83;;;20.50;62.10;;;;;;1491350;39;20027;-60
2021/08/08 01:30:43;;;;;;;5.78;1.80;;;20.50;62.00;;;;;;1485137;39;20013;-60
2021/08/08 01:32:04;;;;;;;4.13;1.80;;;20.50;62.10;;;;;;1490237;39;20054;-59
2021/08/08 01:33:25;;;;;;;3.40;1.65;;;20.50;62.10;;;;;;1490652;39;20027;-60
2021/08/08 01:34:47;;;;;;;1.70;1.48;;;20.50;62.10;;;;;;1489753;39;20035;-60
2021/08/08 01:36:08;;;;;;;1.75;1.30;;;20.50;62.10;;;;;;1489559;39;20122;-59
2021/08/08 01:37:30;;;;;;;4.70;1.50;;;20.50;62.10;;;;;;1490823;39;20020;-60
2021/08/08 01:38:58;;;;;;;3.03;1.55;;;20.50;62.10;;;;;;1488619;39;20440;-59
2021/08/08 01:40:34;;;;;;;5.90;1.88;;;20.40;62.10;;;;;;1491352;39;20031;-60
2021/08/08 01:41:57;;;;;;;3.30;1.48;;;20.40;62.00;;;;;;1489941;39;20012;-59
2021/08/08 01:43:25;;;;;;;3.05;1.88;;;20.40;61.90;;;;;;1489906;39;20024;-59
2021/08/08 01:44:49;;;;;;;4.32;1.55;;;20.50;62.00;;;;;;1490718;39;20022;-59
2021/08/08 01:46:12;;;;;;;4.07;1.63;;;20.40;61.80;;;;;;1492525;39;20362;-59
2021/08/08 01:47:38;;;;;;;3.38;1.48;;;20.40;61.80;;;;;;1487470;39;20029;-60
2021/08/08 01:49:01;;;;;;;3.10;1.50;;;20.40;61.80;;;;;;1490841;39;20039;-60
2021/08/08 01:50:22;;;;;;;4.03;1.60;;;20.50;61.90;;;;;;1491077;39;20124;-59
2021/08/08 01:51:44;;;;;;;4.20;1.55;;;20.40;61.80;;;;;;1490305;39;20296;-60
2021/08/08 01:53:05;;;;;;;3.05;1.63;;;20.40;61.70;;;;;;1489993;39;20031;-59
2021/08/08 01:54:29;;;;;;;5.15;1.73;;;20.40;61.70;;;;;;1490901;39;20089;-60
2021/08/08 01:55:50;;;;;;;4.57;1.58;;;20.40;61.70;;;;;;1488707;39;20020;-59
2021/08/08 01:57:11;;;;;;;4.30;1.70;;;20.40;61.60;;;;;;1491282;39;20028;-60
2021/08/08 01:58:32;;;;;;;3.88;1.45;;;20.40;61.70;;;;;;1488110;39;20060;-60
2021/08/08 01:59:53;;;;;;;2.78;1.40;;;20.40;61.60;;;;;;1489838;39;20076;-59
2021/08/08 02:01:14;;;;;;;4.13;1.52;;;20.50;61.60;;;;;;1489476;39;20034;-60
2021/08/08 02:02:35;;;;;;;3.70;1.40;;;20.40;61.50;;;;;;1490635;39;20027;-60
2021/08/08 02:03:56;;;;;;;3.40;1.65;;;20.40;61.40;;;;;;1490984;39;20036;-57
2021/08/08 02:05:19;;;;;;;3.80;1.58;;;20.40;61.40;;;;;;1491955;39;20307;-59
2021/08/08 02:06:40;;;;;;;5.30;1.50;;;20.40;61.30;;;;;;1491816;39;20028;-59
2021/08/08 02:08:01;;;;;;;2.65;1.00;;;20.40;61.30;;;;;;1489428;39;20434;-59
2021/08/08 02:09:22;;;;;;;4.10;1.67;;;20.40;61.30;;;;;;1491610;39;20272;-59
2021/08/08 02:10:43;;;;;;;4.18;1.80;;;20.40;61.10;;;;;;1488262;39;20546;-59
2021/08/08 02:12:04;;;;;;;3.50;1.45;;;20.40;61.00;;;;;;1489324;39;20258;-60
2021/08/08 02:13:26;;;;;;;5.57;1.40;;;20.40;61.00;;;;;;1490218;39;20032;-60
2021/08/08 02:14:47;;;;;;;4.38;1.75;;;20.40;60.90;;;;;;1488164;39;20027;-60
2021/08/08 02:16:08;;;;;;;4.45;1.83;;;20.40;60.90;;;;;;1491263;39;20052;-60
2021/08/08 02:17:29;;;;;;;4.93;1.90;;;20.40;60.90;;;;;;1493940;39;20067;-60
2021/08/08 02:18:50;;;;;;;7.05;1.63;;;20.40;60.90;;;;;;1490358;39;20033;-59
2021/08/08 02:20:15;;;;;;;11.65;1.58;;;20.40;60.80;;;;;;1489943;39;20035;-59
2021/08/08 02:21:36;;;;;;;3.80;1.60;;;20.40;60.80;;;;;;1489724;39;20031;-59
2021/08/08 02:22:57;;;;;;;2.72;1.70;;;20.40;60.70;;;;;;1488603;39;20136;-60
2021/08/08 02:24:18;;;;;;;3.05;1.48;;;20.40;60.60;;;;;;1490531;39;20028;-60
2021/08/08 02:25:40;;;;;;;3.78;1.40;;;20.40;60.60;;;;;;1488332;39;20027;-60
2021/08/08 02:27:00;;;;;;;3.08;1.70;;;20.30;60.50;;;;;;1490699;39;20030;-60
2021/08/08 02:28:21;;;;;;;3.90;1.52;;;20.40;60.60;;;;;;1491026;39;20024;-59
2021/08/08 02:29:42;;;;;;;2.88;1.30;;;20.40;60.60;;;;;;1489121;39;20042;-59
2021/08/08 02:31:03;;;;;;;4.00;1.67;;;20.40;60.70;;;;;;1490369;39;20027;-60
2021/08/08 02:32:24;;;;;;;4.63;1.83;;;20.40;60.70;;;;;;1488607;39;20040;-59
2021/08/08 02:33:45;;;;;;;3.17;1.67;;;20.30;60.50;;;;;;1486309;39;20260;-60
2021/08/08 02:35:07;;;;;;;4.72;1.90;;;20.30;60.50;;;;;;1485779;39;20072;-59
2021/08/08 02:36:28;;;;;;;2.85;1.67;;;20.30;60.50;;;;;;1491704;39;20020;-59
2021/08/08 02:37:49;;;;;;;2.53;1.60;;;20.30;60.50;;;;;;1491374;39;20357;-59
2021/08/08 02:39:10;;;;;;;3.80;1.58;;;20.30;60.50;;;;;;1491144;39;20035;-60
2021/08/08 02:40:31;;;;;;;5.70;1.85;;;20.30;60.50;;;;;;1490503;39;20128;-60
2021/08/08 02:41:52;;;;;;;4.63;1.70;;;20.30;60.40;;;;;;1488716;39;20051;-60
2021/08/08 02:43:13;;;;;;;4.45;1.60;;;20.30;60.30;;;;;;1491135;39;20038;-59
2021/08/08 02:44:33;;;;;;;3.55;1.70;;;20.30;60.30;;;;;;1491653;39;20026;-60
2021/08/08 02:45:54;;;;;;;4.45;1.80;;;20.30;60.20;;;;;;1489930;39;20064;-60
2021/08/08 02:47:15;;;;;;;5.57;1.80;;;20.30;60.20;;;;;;1490352;39;20437;-59
2021/08/08 02:48:36;;;;;;;5.68;1.75;;;20.30;60.20;;;;;;1491240;39;20100;-60
2021/08/08 02:49:57;;;;;;;5.45;1.95;;;20.30;60.10;;;;;;1489101;39;20028;-60
2021/08/08 02:51:18;;;;;;;5.63;1.70;;;20.20;60.00;;;;;;1490110;39;20027;-60
2021/08/08 02:52:41;;;;;;;4.03;1.60;;;20.20;60.00;;;;;;1488262;39;20294;-60
2021/08/08 02:54:02;;;;;;;2.88;1.80;;;20.20;60.00;;;;;;1489484;39;20044;-60
2021/08/08 02:55:23;;;;;;;5.75;1.95;;;20.20;60.00;;;;;;1490476;39;20032;-60
2021/08/08 02:56:44;;;;;;;5.93;1.55;;;20.20;60.10;;;;;;1489743;39;20031;-58
2021/08/08 02:58:05;;;;;;;5.20;1.90;;;20.10;60.00;;;;;;1490326;39;20047;-60
2021/08/08 02:59:26;;;;;;;2.30;1.35;;;20.10;60.00;;;;;;1490899;39;20454;-60
2021/08/08 03:00:47;;;;;;;5.45;1.70;;;20.10;60.00;;;;;;1487965;39;20064;-58
2021/08/08 03:02:08;;;;;;;2.65;1.38;;;20.10;60.20;;;;;;1489647;39;20050;-59
2021/08/08 03:03:31;;;;;;;3.33;1.60;;;20.00;60.10;;;;;;1490018;39;20023;-60
2021/08/08 03:04:51;;;;;;;4.22;1.80;;;20.00;60.20;;;;;;1488928;39;20276;-60
2021/08/08 03:06:13;;;;;;;3.92;1.90;;;20.00;60.20;;;;;;1491885;39;20044;-60
2021/08/08 03:07:34;;;;;;;3.95;1.52;;;20.00;60.30;;;;;;1491435;39;20019;-60
2021/08/08 03:08:55;;;;;;;4.22;1.90;;;20.00;60.40;;;;;;1490683;39;20340;-60
2021/08/08 03:10:16;;;;;;;3.20;1.60;;;19.90;60.30;;;;;;1491438;39;20253;-60
2021/08/08 03:11:45;;;;;;;4.20;1.65;;;19.90;60.40;;;;;;1489435;39;20039;-59
2021/08/08 03:13:06;;;;;;;4.50;1.83;;;20.00;60.50;;;;;;1491545;39;20035;-60
2021/08/08 03:14:27;;;;;;;3.95;2.05;;;19.90;60.50;;;;;;1489085;39;20035;-60
2021/08/08 03:15:48;;;;;;;7.95;2.08;;;19.90;60.50;;;;;;1490850;39;20308;-60
2021/08/08 03:17:09;;;;;;;5.07;1.75;;;19.90;60.60;;;;;;1490115;39;20072;-60
2021/08/08 03:18:30;;;;;;;2.53;1.83;;;19.90;60.60;;;;;;1490769;39;20568;-60
2021/08/08 03:19:51;;;;;;;3.45;1.60;;;19.90;60.70;;;;;;1490809;39;20036;-60
2021/08/08 03:21:13;;;;;;;3.60;1.60;;;19.80;60.80;;;;;;1492409;39;20055;-60
2021/08/08 03:22:33;;;;;;;4.47;1.80;;;19.80;60.80;;;;;;1490401;39;20016;-60
2021/08/08 03:23:54;;;;;;;5.10;1.80;;;19.80;60.90;;;;;;1490979;39;20113;-60
2021/08/08 03:25:15;;;;;;;3.50;1.98;;;19.80;60.80;;;;;;1490884;39;20046;-60
2021/08/08 03:26:36;;;;;;;4.35;1.70;;;19.80;61.70;;;;;;1488006;39;20108;-60
2021/08/08 03:27:57;;;;;;;4.00;1.92;;;19.70;60.90;;;;;;1490430;39;20036;-60
2021/08/08 03:29:18;;;;;;;5.20;2.03;;;19.70;60.90;;;;;;1491424;39;20200;-60
2021/08/08 03:30:39;;;;;;;8.40;2.35;;;19.70;60.90;;;;;;1489741;39;20026;-60
2021/08/08 03:32:00;;;;;;;3.85;1.70;;;19.70;61.00;;;;;;1488438;39;20640;-60
2021/08/08 03:33:21;;;;;;;4.40;2.08;;;19.70;61.00;;;;;;1491908;39;20125;-60
2021/08/08 03:34:42;;;;;;;6.95;2.22;;;19.70;61.00;;;;;;1489741;39;20028;-60
2021/08/08 03:36:03;;;;;;;5.18;1.77;;;19.70;60.90;;;;;;1488642;39;20032;-60
2021/08/08 03:37:24;;;;;;;3.72;1.83;;;19.60;61.00;;;;;;1488915;39;20023;-60
2021/08/08 03:38:45;;;;;;;7.28;2.00;;;19.60;61.00;;;;;;1488819;39;20032;-60
2021/08/08 03:40:06;;;;;;;2.58;1.80;;;19.60;61.00;;;;;;1490429;39;20036;-60
2021/08/08 03:41:27;;;;;;;5.13;1.92;;;19.60;61.00;;;;;;1491059;39;20126;-61
2021/08/08 03:42:48;;;;;;;2.55;1.58;;;19.60;61.10;;;;;;1488827;39;20181;-60
2021/08/08 03:44:09;;;;;;;3.10;1.73;;;19.60;61.20;;;;;;1489449;39;20083;-60
2021/08/08 03:45:30;;;;;;;2.90;1.80;;;19.60;61.20;;;;;;1491411;39;20024;-59
2021/08/08 03:46:51;;;;;;;4.63;2.05;;;19.50;61.20;;;;;;1488836;39;20338;-59
2021/08/08 03:48:12;;;;;;;4.07;2.10;;;19.50;61.20;;;;;;1490538;39;20368;-59
2021/08/08 03:49:33;;;;;;;4.05;1.77;;;19.50;61.30;;;;;;1491359;39;20272;-60
2021/08/08 03:50:54;;;;;;;6.80;2.25;;;19.50;61.30;;;;;;1491130;39;20028;-59
2021/08/08 03:52:15;;;;;;;5.95;2.03;;;19.50;61.30;;;;;;1487933;39;20032;-60
2021/08/08 03:53:36;;;;;;;5.57;1.80;;;19.50;61.30;;;;;;1489107;39;20043;-59
2021/08/08 03:54:57;;;;;;;4.65;1.92;;;19.50;61.50;;;;;;1490151;39;20079;-60
2021/08/08 03:56:17;;;;;;;4.47;1.90;;;19.50;61.50;;;;;;1490717;39;20030;-60
2021/08/08 03:57:38;;;;;;;5.82;1.80;;;19.50;61.50;;;;;;1488729;39;20043;-59
2021/08/08 03:58:59;;;;;;;5.90;2.00;;;19.40;61.50;;;;;;1489785;39;20129;-60
2021/08/08 04:00:20;;;;;;;4.30;1.98;;;19.40;61.60;;;;;;1491099;39;20027;-59
2021/08/08 04:01:41;;;;;;;4.45;1.90;;;19.40;61.70;;;;;;1489324;39;20030;-60
2021/08/08 04:03:02;;;;;;;7.07;2.40;;;19.40;61.70;;;;;;1489486;39;20031;-59
2021/08/08 04:04:23;;;;;;;8.45;2.53;;;19.40;61.70;;;;;;1490989;39;20077;-59
2021/08/08 04:05:44;;;;;;;4.25;2.10;;;19.40;61.80;;;;;;1490488;39;20263;-59
2021/08/08 04:07:05;;;;;;;5.60;2.03;;;19.40;61.80;;;;;;1490326;39;20032;-60
2021/08/08 04:08:26;;;;;;;6.53;1.90;;;19.40;61.80;;;;;;1490483;39;20043;-58
2021/08/08 04:09:47;;;;;;;6.45;2.08;;;19.30;61.90;;;;;;1490123;39;20036;-60
2021/08/08 04:11:12;;;;;;;6.20;2.30;;;19.30;61.90;;;;;;1491536;39;20047;-60
2021/08/08 04:12:34;;;;;;;5.63;1.75;;;19.30;62.10;;;;;;1491098;39;20119;-58
2021/08/08 04:13:55;;;;;;;4.57;1.77;;;19.30;62.00;;;;;;1490827;39;20020;-58
2021/08/08 04:15:16;;;;;;;5.40;2.20;;;19.30;62.00;;;;;;1491266;39;20057;-60
2021/08/08 04:16:37;;;;;;;6.93;2.25;;;19.30;62.00;;;;;;1490036;39;20106;-60
2021/08/08 04:17:58;;;;;;;4.03;1.75;;;19.30;62.00;;;;;;1491446;39;20036;-60
2021/08/08 04:19:18;;;;;;;4.90;1.90;;;19.30;62.10;;;;;;1491937;39;20032;-60
2021/08/08 04:20:40;;;;;;;6.63;1.90;;;19.30;62.10;;;;;;1489034;39;20048;-60
2021/08/08 04:22:04;;;;;;;4.35;2.40;;;19.30;62.20;;;;;;1491135;39;20028;-60
2021/08/08 04:23:25;;;;;;;6.10;2.33;;;19.30;62.20;;;;;;1492589;39;20372;-60
2021/08/08 04:24:46;;;;;;;4.20;2.00;;;19.30;62.10;;;;;;1488696;39;20359;-60
2021/08/08 04:26:06;;;;;;;5.90;2.03;;;19.20;62.10;;;;;;1491194;39;20268;-60
2021/08/08 04:27:27;;;;;;;5.70;2.05;;;19.20;62.20;;;;;;1491408;39;20028;-59
2021/08/08 04:28:48;;;;;;;6.07;2.20;;;19.20;62.30;;;;;;1487183;40;20028;-60
2021/08/08 04:30:10;;;;;;;2.55;1.55;;;19.20;62.30;;;;;;1485702;40;20028;-60
2021/08/08 04:31:31;;;;;;;5.13;2.30;;;19.20;63.00;;;;;;1489144;39;20284;-60
2021/08/08 04:32:53;;;;;;;6.10;2.15;;;19.20;62.40;;;;;;1488784;39;20020;-60
2021/08/08 04:34:14;;;;;;;7.95;1.85;;;19.20;62.40;;;;;;1492442;39;20047;-60
2021/08/08 04:35:37;;;;;;;5.53;2.47;;;19.20;62.50;;;;;;1490085;39;20027;-60
2021/08/08 04:36:59;;;;;;;3.42;1.73;;;19.20;62.60;;;;;;1492996;39;20032;-59
2021/08/08 04:38:20;;;;;;;7.63;2.58;;;19.20;62.60;;;;;;1491874;39;20036;-60
2021/08/08 04:39:41;;;;;;;7.00;2.40;;;19.20;62.60;;;;;;1488435;39;20020;-60
2021/08/08 04:41:02;;;;;;;6.95;2.03;;;19.20;62.70;;;;;;1490074;39;20034;-59
2021/08/08 04:42:23;;;;;;;4.50;2.15;;;19.20;62.70;;;;;;1490961;39;20028;-57
2021/08/08 04:43:44;;;;;;;5.75;2.30;;;19.20;62.80;;;;;;1487328;39;20358;-59
2021/08/08 04:45:05;;;;;;;6.68;2.40;;;19.10;62.70;;;;;;1488184;39;20339;-59
2021/08/08 04:46:26;;;;;;;8.85;2.45;;;19.20;62.80;;;;;;1491637;39;20076;-59
2021/08/08 04:47:49;;;;;;;6.68;1.85;;;19.10;62.80;;;;;;1491187;39;20173;-59
2021/08/08 04:49:10;;;;;;;6.90;2.10;;;19.10;63.00;;;;;;1490803;39;20055;-59
2021/08/08 04:50:31;;;;;;;7.60;2.58;;;19.10;63.00;;;;;;1492091;39;20109;-59
2021/08/08 04:51:52;;;;;;;4.07;1.70;;;19.20;63.90;;;;;;1489130;39;20089;-59
2021/08/08 04:53:17;;;;;;;5.45;2.10;;;19.20;63.30;;;;;;1492506;39;20213;-59
2021/08/08 04:54:38;;;;;;;5.78;2.58;;;19.20;63.50;;;;;;1487913;39;20321;-59
2021/08/08 04:55:59;;;;;;;3.78;1.85;;;19.20;63.50;;;;;;1491517;39;20038;-59
2021/08/08 04:57:20;;;;;;;5.70;2.03;;;19.20;63.60;;;;;;1489041;39;20035;-59
2021/08/08 04:58:41;;;;;;;5.95;2.35;;;19.20;63.70;;;;;;1488793;39;20039;-60
2021/08/08 05:00:02;;;;;;;4.13;2.30;;;19.20;63.70;;;;;;1488111;39;20035;-59
2021/08/08 05:01:23;;;;;;;4.85;2.30;;;19.30;63.80;;;;;;1490015;39;20036;-59
2021/08/08 05:02:48;;;;;;;6.50;2.50;;;19.30;63.80;;;;;;1489389;39;20465;-59
2021/08/08 05:04:09;;;;;;;5.80;1.70;;;19.30;64.00;;;;;;1493158;39;20074;-60
2021/08/08 05:05:30;;;;;;;13.38;2.50;;;19.30;63.80;;;;;;1490097;39;20046;-59
2021/08/08 05:06:51;;;;;;;5.30;2.65;;;19.30;63.80;;;;;;1491336;39;20039;-60
2021/08/08 05:08:12;;;;;;;8.15;2.42;;;19.30;63.70;;;;;;1488864;39;20042;-59
2021/08/08 05:09:33;;;;;;;5.85;2.13;;;19.30;63.60;;;;;;1492604;39;20043;-59
2021/08/08 05:10:53;;;;;;;6.32;2.00;;;19.40;63.70;;;;;;1489599;39;20020;-59
2021/08/08 05:12:14;;;;;;;4.18;2.08;;;19.40;63.60;;;;;;1490821;39;20039;-59
2021/08/08 05:13:35;;;;;;;4.95;1.90;;;19.40;63.60;;;;;;1489293;39;20039;-59
2021/08/08 05:14:56;;;;;;;6.47;1.90;;;19.40;63.60;;;;;;1490747;39;20036;-58
2021/08/08 05:16:17;;;;;;;4.45;1.95;;;19.40;63.50;;;;;;1490891;39;20043;-59
2021/08/08 05:17:38;;;;;;;7.13;2.42;;;19.40;63.50;;;;;;1494019;39;20020;-59
2021/08/08 05:18:59;;;;;;;5.70;2.10;;;19.40;63.40;;;;;;1489312;39;20050;-58
2021/08/08 05:20:20;;;;;;;6.47;2.38;;;19.40;63.40;;;;;;1490548;39;20342;-59
2021/08/08 05:21:41;;;;;;;6.18;2.17;;;19.40;63.40;;;;;;1489700;39;20031;-59
2021/08/08 05:23:02;;;;;;;4.95;2.13;;;19.50;63.40;;;;;;1490883;39;20034;-59
2021/08/08 05:24:23;;;;;;;6.20;2.28;;;19.50;63.40;;;;;;1490743;39;20031;-59
2021/08/08 05:25:45;;;;;;;5.28;1.80;;;19.50;63.30;;;;;;1488540;39;20024;-59
2021/08/08 05:27:05;;;;;;;5.03;2.08;;;19.50;63.30;;;;;;1489657;39;20043;-59
2021/08/08 05:28:26;;;;;;;7.65;2.53;;;19.50;63.20;;;;;;1489167;39;20071;-59
2021/08/08 05:29:48;;;;;;;9.02;2.00;;;19.50;63.20;;;;;;1493816;39;20019;-59
2021/08/08 05:31:09;;;;;;;3.92;2.08;;;19.50;63.10;;;;;;1490780;39;20036;-58
2021/08/08 05:32:30;;;;;;;8.27;2.90;;;19.50;63.30;;;;;;1490441;39;20015;-58
2021/08/08 05:33:51;;;;;;;5.45;2.17;;;19.50;63.30;;;;;;1486250;39;20036;-59
2021/08/08 05:35:12;;;;;;;5.30;1.92;;;19.50;63.40;;;;;;1486682;39;20040;-58
2021/08/08 05:36:33;;;;;;;4.03;1.95;;;19.50;63.40;;;;;;1490978;39;20032;-58
2021/08/08 05:37:54;;;;;;;5.43;2.00;;;19.50;63.50;;;;;;1489212;39;20039;-58
2021/08/08 05:39:15;;;;;;;4.85;2.33;;;19.50;63.50;;;;;;1488808;39;20066;-58
2021/08/08 05:40:36;;;;;;;5.63;2.00;;;19.50;63.50;;;;;;1490402;39;20028;-58
2021/08/08 05:41:57;;;;;;;7.38;2.30;;;19.60;63.50;;;;;;1489093;39;20043;-58
2021/08/08 05:43:19;;;;;;;8.02;2.22;;;19.60;63.50;;;;;;1491092;39;20034;-58
2021/08/08 05:44:40;;;;;;;6.45;2.17;;;19.60;63.40;;;;;;1489613;39;20074;-59
2021/08/08 05:46:01;;;;;;;5.60;2.13;;;19.60;63.50;;;;;;1487804;39;20449;-58
2021/08/08 05:47:22;;;;;;;6.15;1.77;;;19.60;63.40;;;;;;1491177;39;20141;-58
2021/08/08 05:48:42;;;;;;;6.47;1.92;;;19.70;63.30;;;;;;1489210;39;20035;-58
2021/08/08 05:50:04;;;;;;;3.67;2.00;;;19.70;63.20;;;;;;1492498;39;20024;-59
2021/08/08 05:51:25;;;;;;;7.05;1.67;;;19.70;63.80;;;;;;1491122;39;20099;-58
2021/08/08 05:52:50;;;;;;;4.97;2.10;;;19.70;63.00;;;;;;1488769;39;20017;-58
2021/08/08 05:54:11;;;;;;;6.95;1.92;;;19.70;63.00;;;;;;1491755;39;20386;-58
2021/08/08 05:55:35;;;;;;;6.03;2.25;;;19.70;62.90;;;;;;1490956;39;20028;-58
2021/08/08 05:56:56;;;;;;;8.30;2.42;;;19.70;62.80;;;;;;1489472;39;20028;-58
2021/08/08 05:58:17;;;;;;;3.67;1.98;;;19.70;62.70;;;;;;1488957;39;20031;-58
2021/08/08 05:59:38;;;;;;;5.40;2.20;;;19.80;62.60;;;;;;1489031;39;20105;-60
2021/08/08 06:00:59;;;;;;;5.88;2.13;;;19.80;62.60;;;;;;1489306;39;20035;-59
2021/08/08 06:02:20;;;;;;;2.72;1.95;;;19.80;62.60;;;;;;1491751;39;20023;-60
2021/08/08 06:03:41;;;;;;;4.10;1.73;;;19.80;62.60;;;;;;1488515;39;20136;-58
2021/08/08 06:05:02;;;;;;;3.65;1.90;;;19.80;62.60;;;;;;1491821;39;20034;-58
2021/08/08 06:06:23;;;;;;;4.57;1.98;;;19.70;62.40;;;;;;1491123;39;20038;-58
2021/08/08 06:07:44;;;;;;;3.78;2.00;;;19.80;62.40;;;;;;1490057;39;20031;-58
2021/08/08 06:09:05;;;;;;;5.55;1.75;;;19.80;62.40;;;;;;1487689;39;20040;-57
2021/08/08 06:10:26;;;;;;;4.95;2.08;;;19.80;62.30;;;;;;1490866;39;20035;-59
2021/08/08 06:11:47;;;;;;;4.40;2.35;;;19.80;62.20;;;;;;1490424;39;20028;-58
2021/08/08 06:13:08;;;;;;;5.47;1.80;;;19.80;62.20;;;;;;1491375;39;20047;-58
2021/08/08 06:14:29;;;;;;;4.93;2.00;;;19.80;62.20;;;;;;1490060;39;20046;-58
2021/08/08 06:15:50;;;;;;;5.35;1.75;;;19.80;62.10;;;;;;1491600;39;20147;-59
2021/08/08 06:17:10;;;;;;;6.10;2.05;;;19.80;62.10;;;;;;1490610;39;20036;-59
2021/08/08 06:18:31;;;;;;;5.22;2.15;;;19.80;62.10;;;;;;1490263;39;20097;-58
2021/08/08 06:19:52;;;;;;;4.93;1.98;;;19.80;62.10;;;;;;1488826;39;20024;-59
2021/08/08 06:21:13;;;;;;;6.50;2.15;;;19.80;62.10;;;;;;1490445;39;20039;-59
2021/08/08 06:22:34;;;;;;;6.68;2.03;;;19.90;62.10;;;;;;1491738;39;20048;-59
2021/08/08 06:23:55;;;;;;;5.30;2.15;;;19.90;62.10;;;;;;1488795;39;20024;-59
2021/08/08 06:25:17;;;;;;;4.88;1.98;;;19.90;62.10;;;;;;1489829;39;20043;-59
2021/08/08 06:26:37;;;;;;;6.50;2.20;;;19.90;62.00;;;;;;1487209;39;20110;-58
2021/08/08 06:27:58;;;;;;;2.90;1.60;;;19.90;62.10;;;;;;1491092;39;20047;-58
2021/08/08 06:29:19;;;;;;;4.97;2.05;;;19.90;62.10;;;;;;1490624;39;20044;-58
2021/08/08 06:30:40;;;;;;;6.03;2.20;;;19.90;62.10;;;;;;1489918;39;20040;-58
2021/08/08 06:32:01;;;;;;;6.35;2.13;;;19.90;62.00;;;;;;1491351;39;20112;-58
2021/08/08 06:33:22;;;;;;;5.05;2.00;;;19.90;61.90;;;;;;1490377;39;20025;-58
2021/08/08 06:34:43;;;;;;;5.82;1.95;;;19.90;61.80;;;;;;1489409;39;20064;-59
2021/08/08 06:36:04;;;;;;;6.00;2.10;;;19.90;61.80;;;;;;1489265;39;20032;-58
2021/08/08 06:37:25;;;;;;;5.95;2.35;;;19.90;61.90;;;;;;1493579;39;20025;-58
2021/08/08 06:38:46;;;;;;;5.50;1.83;;;19.90;61.90;;;;;;1488444;39;20420;-59
2021/08/08 06:40:08;;;;;;;5.25;1.83;;;19.90;61.80;;;;;;1489453;39;20028;-59
2021/08/08 06:41:29;;;;;;;5.05;2.55;;;19.90;61.70;;;;;;1490934;39;20032;-59
2021/08/08 06:42:50;;;;;;;6.80;2.03;;;19.90;61.70;;;;;;1488638;39;20084;-59
2021/08/08 06:44:10;;;;;;;6.18;2.38;;;19.90;61.60;;;;;;1491849;39;20331;-59
2021/08/08 06:45:33;;;;;;;3.67;2.08;;;19.90;61.60;;;;;;1491330;39;20039;-59
2021/08/08 06:46:54;;;;;;;4.47;2.10;;;19.90;61.80;;;;;;1489796;39;20028;-59
2021/08/08 06:48:15;;;;;;;6.05;2.22;;;19.90;61.70;;;;;;1490027;39;20054;-60
2021/08/08 06:49:36;;;;;;;4.03;1.75;;;19.90;61.70;;;;;;1491805;39;20030;-60
2021/08/08 06:50:57;;;;;;;4.88;1.88;;;19.90;61.70;;;;;;1491321;39;20030;-59
2021/08/08 06:52:17;;;;;;;6.60;1.90;;;19.90;61.50;;;;;;1491262;39;20032;-59
2021/08/08 06:53:38;;;;;;;4.22;1.95;;;20.00;61.50;;;;;;1489019;39;20257;-59
2021/08/08 06:54:59;;;;;;;3.80;1.80;;;19.90;61.30;;;;;;1490572;39;20079;-59
2021/08/08 06:56:20;;;;;;;5.80;2.20;;;19.90;61.20;;;;;;1491053;39;20339;-59
2021/08/08 06:57:41;;;;;;;4.22;2.10;;;19.90;61.20;;;;;;1491025;39;20048;-60
2021/08/08 06:59:02;;;;;;;5.78;1.92;;;20.00;61.30;;;;;;1489855;39;20023;-58
2021/08/08 07:00:23;;;;;;;4.55;1.70;;;20.00;61.20;;;;;;1493043;39;20035;-60
2021/08/08 07:01:44;;;;;;;5.53;1.90;;;20.00;61.30;;;;;;1490479;39;20063;-60
2021/08/08 07:03:06;;;;;;;6.65;2.03;;;20.00;61.40;;;;;;1488043;39;20023;-59
2021/08/08 07:04:27;;;;;;;4.75;1.75;;;20.00;61.40;;;;;;1490589;39;20032;-58
2021/08/08 07:05:48;;;;;;;6.75;2.42;;;20.00;61.30;;;;;;1489043;39;20036;-60